Time;durP1;ratioP1;P1;durP2;ratioP2;P2;SDS_P1;SDS_P2;PMS_P1;PMS_P2;Temp;Humidity;BMP_temperature;BMP_pressure;BME280_temperature;BME280_humidity;BME280_pressure;Samples;Min_cycle;Max_cycle;Signal;HPM_P1;HPM_P2
2023/06/27 04:06:03;;;;;;;;;2.00;2.00;;;;;20.34;44.82;101819.94;5112325;27;45439;-68
2023/06/27 04:08:29;;;;;;;;;2.00;2.00;;;;;20.56;45.24;101825.69;5094713;27;45450;-74
2023/06/27 04:10:58;;;;;;;;;2.33;2.00;;;;;20.78;45.26;101812.75;5090575;27;45300;-71
2023/06/27 04:13:24;;;;;;;;;2.00;1.67;;;;;21.03;44.30;101814.84;5090597;27;45349;-71
2023/06/27 04:15:49;;;;;;;;;3.67;2.00;;;;;21.35;43.39;101836.22;5092502;27;46614;-75
2023/06/27 04:18:15;;;;;;;;;2.67;2.00;;;;;21.45;42.93;101828.94;5090440;27;45414;-73
2023/06/27 04:20:41;;;;;;;;;2.33;2.33;;;;;21.70;42.39;101825.59;5090339;27;45876;-75
2023/06/27 04:23:07;;;;;;;;;3.00;2.00;;;;;21.59;42.46;101826.78;5123662;27;45693;-73
2023/06/27 04:25:33;;;;;;;;;2.33;1.67;;;;;21.55;42.38;101822.44;5090075;27;46204;-71
2023/06/27 04:27:59;;;;;;;;;2.00;2.00;;;;;21.57;42.95;101835.72;5090479;27;45612;-71
2023/06/27 04:30:26;;;;;;;;;3.33;2.33;;;;;21.69;42.89;101845.16;5094928;27;45339;-71
2023/06/27 04:32:51;;;;;;;;;2.00;2.00;;;;;21.80;42.40;101835.94;5093627;27;45692;-71
2023/06/27 04:35:18;;;;;;;;;4.00;2.00;;;;;21.81;42.59;101839.53;5094554;27;46330;-72
2023/06/27 04:37:44;;;;;;;;;1.67;1.67;;;;;21.70;42.74;101823.78;5094772;27;45286;-73
2023/06/27 04:40:13;;;;;;;;;6.00;4.00;;;;;21.92;42.39;101829.41;5094806;27;45425;-73
2023/06/27 04:42:39;;;;;;;;;3.00;2.00;;;;;22.09;42.04;101846.72;5089061;27;45524;-73
2023/06/27 04:45:05;;;;;;;;;3.67;1.33;;;;;22.18;42.07;101842.00;5090018;27;45627;-75
2023/06/27 04:47:32;;;;;;;;;2.67;2.67;;;;;22.25;41.67;101828.53;5088588;27;45409;-74
2023/06/27 04:49:58;;;;;;;;;3.00;1.00;;;;;22.37;41.70;101826.34;5089587;27;45445;-74
2023/06/27 04:52:26;;;;;;;;;2.00;2.00;;;;;22.50;41.56;101824.22;5123402;27;45585;-73
2023/06/27 04:54:52;;;;;;;;;3.00;2.33;;;;;22.60;41.23;101828.34;5089613;27;46823;-72
2023/06/27 04:57:18;;;;;;;;;4.00;1.67;;;;;22.61;41.53;101827.44;5088079;27;45863;-74
2023/06/27 04:59:44;;;;;;;;;4.00;2.67;;;;;22.70;41.24;101831.59;5090002;27;45694;-74
2023/06/27 05:02:10;;;;;;;;;3.00;2.67;;;;;22.64;40.98;101805.09;5091808;27;45438;-76
2023/06/27 05:04:36;;;;;;;;;2.67;2.00;;;;;22.78;41.18;101820.66;5091490;27;46170;-74
2023/06/27 05:07:04;;;;;;;;;3.67;2.00;;;;;22.86;41.07;101826.66;5088541;27;45453;-73
2023/06/27 05:09:30;;;;;;;;;2.00;2.00;;;;;22.88;41.09;101810.59;5093329;27;45437;-74
2023/06/27 05:11:56;;;;;;;;;3.33;2.67;;;;;22.86;40.96;101807.94;5090049;27;45356;-76
2023/06/27 05:14:22;;;;;;;;;4.00;2.67;;;;;22.78;40.66;101796.63;5089815;27;45704;-72
2023/06/27 05:16:47;;;;;;;;;4.00;2.00;;;;;22.74;41.10;101779.84;5080076;27;45450;-75
2023/06/27 05:19:13;;;;;;;;;7.67;2.00;;;;;22.84;40.89;101788.44;5076843;28;45742;-75
2023/06/27 05:21:39;;;;;;;;;5.67;2.00;;;;;23.12;41.11;101827.63;5076006;28;45751;-72
2023/06/27 05:24:05;;;;;;;;;2.33;2.33;;;;;23.02;40.96;101809.22;5094633;27;47999;-71
2023/06/27 05:26:35;;;;;;;;;2.33;2.00;;;;;23.25;40.99;101845.88;5075762;28;45428;-72
2023/06/27 05:29:01;;;;;;;;;4.33;4.33;;;;;23.26;41.32;101842.28;5075837;28;45633;-74
2023/06/27 05:31:27;;;;;;;;;6.67;3.67;;;;;23.25;41.15;101842.31;5092167;27;45380;-72
2023/06/27 05:33:56;;;;;;;;;6.33;4.00;;;;;23.33;41.06;101850.97;5075561;28;45446;-72
2023/06/27 05:36:23;;;;;;;;;6.67;3.33;;;;;23.37;41.04;101855.28;5075515;28;45402;-72
2023/06/27 05:38:49;;;;;;;;;4.00;3.00;;;;;23.39;40.93;101861.44;5074270;28;45488;-72
2023/06/27 05:41:18;;;;;;;;;6.67;5.00;;;;;23.36;41.09;101848.19;5075599;27;45508;-77
2023/06/27 05:43:46;;;;;;;;;3.67;3.33;;;;;23.37;41.11;101839.25;5075479;28;46086;-75
2023/06/27 05:46:12;;;;;;;;;4.00;4.00;;;;;23.33;41.18;101821.56;5076420;28;45408;-74
2023/06/27 05:48:41;;;;;;;;;4.00;3.00;;;;;23.55;41.45;101847.56;5079668;27;45485;-74
2023/06/27 05:51:11;;;;;;;;;2.67;2.67;;;;;23.57;41.22;101845.72;5076622;27;45310;-74
2023/06/27 05:53:36;;;;;;;;;4.67;3.00;;;;;23.62;41.23;101839.25;5075411;28;45414;-72
2023/06/27 05:56:02;;;;;;;;;3.00;3.00;;;;;23.67;41.29;101837.28;5076585;28;45512;-74
2023/06/27 05:58:29;;;;;;;;;4.00;2.67;;;;;23.64;41.50;101824.03;5110792;27;45508;-72
2023/06/27 06:00:55;;;;;;;;;5.33;2.00;;;;;23.46;41.58;101785.44;5074674;28;45530;-74
2023/06/27 06:03:25;;;;;;;;;3.00;3.00;;;;;23.37;41.33;101764.41;5075337;27;45470;-73
2023/06/27 06:05:51;;;;;;;;;3.33;2.67;;;;;23.85;40.95;101818.91;5085529;27;45907;-73
2023/06/27 06:08:16;;;;;;;;;2.00;2.00;;;;;23.80;40.89;101807.47;5078629;28;45379;-73
2023/06/27 06:10:42;;;;;;;;;1.50;1.50;;;;;24.01;40.98;101828.06;5075777;28;45271;-73
2023/06/27 06:13:11;;;;;;;;;3.33;1.67;;;;;24.08;40.75;101834.09;5075674;28;45476;-73
2023/06/27 06:15:37;;;;;;;;;4.33;2.67;;;;;23.98;41.06;101801.44;5077859;27;45475;-73
2023/06/27 06:18:03;;;;;;;;;3.50;2.00;;;;;24.22;41.03;101833.56;5076577;27;45458;-74
2023/06/27 06:20:29;;;;;;;;;3.00;1.75;;;;;24.31;41.11;101836.78;5075678;28;45588;-73
2023/06/27 06:22:59;;;;;;;;;2.00;2.00;;;;;24.05;40.29;101783.34;5075492;28;46388;-73
2023/06/27 06:25:26;;;;;;;;;4.67;3.33;;;;;24.46;40.32;101839.78;5075144;27;45474;-73
2023/06/27 06:27:53;;;;;;;;;5.67;2.67;;;;;24.51;40.66;101825.34;5075304;27;45402;-73
2023/06/27 06:30:18;;;;;;;;;2.33;2.00;;;;;24.55;39.98;101831.44;5070434;28;45588;-73
2023/06/27 06:32:44;;;;;;;;;4.67;3.00;;;;;24.57;40.73;101826.03;5086163;27;45574;-72
2023/06/27 06:35:15;;;;;;;;;3.00;2.00;;;;;24.52;40.58;101816.34;5066183;28;45316;-75
2023/06/27 06:37:44;;;;;;;;;4.00;3.00;;;;;24.56;40.73;101819.81;5075354;27;45686;-72
2023/06/27 06:40:13;;;;;;;;;3.25;2.75;;;;;24.60;40.77;101837.47;5075343;28;45552;-74
2023/06/27 06:42:45;;;;;;;;;4.33;2.33;;;;;24.53;40.67;101828.81;5074329;28;46173;-72
2023/06/27 06:45:11;;;;;;;;;5.33;5.33;;;;;24.52;40.35;101821.72;5083585;27;45355;-73
2023/06/27 06:47:37;;;;;;;;;7.00;5.00;;;;;24.50;40.33;101801.28;5087067;27;45293;-73
2023/06/27 06:50:03;;;;;;;;;4.25;4.25;;;;;24.76;40.23;101838.63;5085630;27;45835;-74
2023/06/27 06:52:28;;;;;;;;;6.00;4.33;;;;;24.78;40.64;101843.06;5095558;27;45986;-73
2023/06/27 06:54:55;;;;;;;;;4.00;3.33;;;;;24.78;40.01;101829.66;5095691;27;45666;-74
2023/06/27 06:57:21;;;;;;;;;6.67;5.00;;;;;24.89;40.27;101839.00;5095264;27;45409;-73
2023/06/27 06:59:46;;;;;;;;;6.00;4.00;;;;;24.97;39.93;101836.88;5095422;27;45510;-71
2023/06/27 07:02:12;;;;;;;;;6.67;5.33;;;;;24.95;39.81;101832.53;5095054;27;45990;-74
2023/06/27 07:04:38;;;;;;;;;7.00;3.00;;;;;24.64;39.85;101790.91;5095824;27;45487;-74
2023/06/27 07:07:04;;;;;;;;;4.33;3.00;;;;;24.92;40.16;101832.66;5074817;27;45509;-73
2023/06/27 07:09:30;;;;;;;;;5.67;3.00;;;;;25.02;39.94;101828.66;5056518;28;45711;-74
2023/06/27 07:11:56;;;;;;;;;5.50;2.75;;;;;24.91;40.01;101796.06;5053115;28;46214;-73
2023/06/27 07:14:21;;;;;;;;;5.00;4.00;;;;;24.86;39.64;101792.69;5059605;27;45415;-73
2023/06/27 07:16:47;;;;;;;;;5.75;3.25;;;;;25.14;39.74;101832.63;5067746;28;45350;-74
2023/06/27 07:19:13;;;;;;;;;3.50;2.25;;;;;25.24;39.81;101839.38;5058770;28;45338;-72
2023/06/27 07:21:41;;;;;;;;;3.25;2.00;;;;;25.26;39.67;101834.81;5056530;28;45877;-73
2023/06/27 07:24:10;;;;;;;;;2.50;2.50;;;;;25.27;39.57;101836.59;5053281;28;45667;-73
2023/06/27 07:26:36;;;;;;;;;4.50;2.00;;;;;25.34;39.15;101847.91;5053603;28;45545;-72
2023/06/27 07:29:02;;;;;;;;;3.25;3.00;;;;;25.30;39.08;101830.22;5053809;28;45551;-74
2023/06/27 07:31:28;;;;;;;;;3.75;3.75;;;;;25.46;39.12;101847.41;5053550;28;46087;-73
2023/06/27 07:33:55;;;;;;;;;3.25;3.25;;;;;25.50;38.99;101840.94;5054575;28;45393;-73
2023/06/27 07:36:20;;;;;;;;;4.75;3.00;;;;;25.23;38.60;101799.25;5058091;28;45318;-74
2023/06/27 07:38:46;;;;;;;;;4.25;3.00;;;;;25.51;38.92;101837.34;5068044;28;45753;-74
2023/06/27 07:41:12;;;;;;;;;3.00;2.00;;;;;25.60;38.86;101849.47;5076705;27;45461;-74
2023/06/27 07:43:41;;;;;;;;;2.50;2.50;;;;;25.39;38.93;101803.88;5077549;27;45774;-74
2023/06/27 07:46:07;;;;;;;;;3.00;2.00;;;;;25.63;38.89;101832.38;5076843;27;45545;-73
2023/06/27 07:48:32;;;;;;;;;3.00;2.00;;;;;25.76;38.63;101849.69;5073770;28;45400;-74
2023/06/27 07:50:58;;;;;;;;;4.50;3.50;;;;;25.74;38.25;101833.63;5071927;27;46768;-73
2023/06/27 07:53:24;;;;;;;;;4.00;4.00;;;;;25.62;37.92;101803.81;5073497;28;45442;-74
2023/06/27 07:55:50;;;;;;;;;5.00;3.00;;;;;25.58;38.36;101800.41;5076396;28;45479;-73
2023/06/27 07:58:15;;;;;;;;;4.75;3.50;;;;;25.77;38.10;101828.16;5077651;28;45394;-73
2023/06/27 08:00:41;;;;;;;;;2.75;2.50;;;;;25.91;38.29;101843.69;5076815;28;45447;-74
2023/06/27 08:03:11;;;;;;;;;7.75;5.75;;;;;25.93;37.88;101847.13;5072800;28;45537;-74
2023/06/27 08:05:39;;;;;;;;;9.67;6.67;;;;;25.89;37.80;101840.19;5067940;28;45325;-73
2023/06/27 08:08:05;;;;;;;;;5.50;4.50;;;;;25.99;38.00;101856.75;5057769;28;45474;-74
2023/06/27 08:10:30;;;;;;;;;5.00;4.00;;;;;25.79;38.08;101817.34;5057396;28;45477;-75
2023/06/27 08:12:56;;;;;;;;;7.00;5.00;;;;;25.98;38.11;101852.31;5053361;28;45733;-76
2023/06/27 08:15:27;;;;;;;;;5.75;3.50;;;;;25.80;38.12;101805.69;5046951;28;45606;-75
2023/06/27 08:17:57;;;;;;;;;6.00;3.25;;;;;26.02;38.03;101837.81;5050164;28;45423;-73
2023/06/27 08:20:23;;;;;;;;;7.50;4.00;;;;;26.02;37.95;101841.34;5058222;28;45541;-74
2023/06/27 08:22:48;;;;;;;;;6.50;4.25;;;;;25.84;37.92;101804.59;5057395;28;45498;-73
2023/06/27 08:25:14;;;;;;;;;9.25;6.50;;;;;26.02;38.02;101830.63;5040023;28;45534;-79
2023/06/27 08:27:40;;;;;;;;;7.75;3.75;;;;;26.02;37.81;101824.38;5056974;28;45470;-74
2023/06/27 08:30:08;;;;;;;;;6.25;3.50;;;;;26.09;37.24;101835.72;5055990;28;46498;-75
2023/06/27 08:32:33;;;;;;;;;4.25;3.25;;;;;26.12;37.57;101828.38;5056028;28;45364;-75
2023/06/27 08:34:59;;;;;;;;;4.00;4.00;;;;;26.11;36.61;101828.47;5056072;28;45427;-77
2023/06/27 08:37:26;;;;;;;;;5.00;2.50;;;;;25.66;36.79;101794.69;5056352;28;45596;-75
2023/06/27 08:39:53;;;;;;;;;3.25;2.75;;;;;25.46;37.25;101788.41;5067120;28;45567;-78
2023/06/27 08:42:19;;;;;;;;;6.00;3.00;;;;;25.62;36.88;101807.34;5057002;28;45583;-75
2023/06/27 08:44:44;;;;;;;;;3.00;3.00;;;;;25.72;37.45;101816.75;5050894;28;45509;-72
2023/06/27 08:47:12;;;;;;;;;4.50;3.00;;;;;25.87;37.54;101830.47;5026023;28;45516;-78
2023/06/27 08:49:43;;;;;;;;;3.50;3.25;;;;;25.96;36.22;101819.28;5034306;28;45393;-78
2023/06/27 08:52:13;;;;;;;;;6.00;4.00;;;;;25.88;35.92;101797.31;5046737;28;45509;-77
2023/06/27 08:54:43;;;;;;;;;5.75;3.25;;;;;26.11;36.42;101817.75;5079720;28;45447;-77
2023/06/27 08:57:11;;;;;;;;;3.75;3.25;;;;;26.12;36.64;101808.72;5061832;28;45541;-73
2023/06/27 08:59:37;;;;;;;;;6.00;5.25;;;;;26.31;35.50;101811.41;5077975;28;46937;-81
2023/06/27 09:02:05;;;;;;;;;4.50;4.00;;;;;26.29;34.51;101810.63;5079180;28;45434;-75
2023/06/27 09:04:35;;;;;;;;;6.75;3.50;;;;;26.19;34.25;101794.06;5065259;28;45422;-76
2023/06/27 09:07:01;;;;;;;;;3.50;3.00;;;;;26.20;34.37;101811.94;5080299;27;45346;-74
2023/06/27 09:09:30;;;;;;;;;7.75;3.00;;;;;26.06;34.27;101755.34;5080261;27;45943;-75
2023/06/27 09:12:00;;;;;;;;;3.25;3.00;;;;;26.31;34.50;101800.69;5078166;27;45788;-75
2023/06/27 09:14:26;;;;;;;;;2.00;1.25;;;;;26.41;34.60;101789.44;5078527;27;45548;-73
2023/06/27 09:16:52;;;;;;;;;5.25;3.25;;;;;26.63;34.04;101783.94;5090524;27;45542;-74
2023/06/27 09:19:19;;;;;;;;;3.00;2.00;;;;;26.81;32.95;101797.41;5058171;28;46531;-74
2023/06/27 09:21:47;;;;;;;;;4.50;3.00;;;;;26.75;33.22;101795.88;5056694;28;45755;-72
2023/06/27 09:24:16;;;;;;;;;3.50;3.00;;;;;26.65;33.44;101781.19;5064416;28;45508;-73
2023/06/27 09:26:42;;;;;;;;;3.00;1.75;;;;;26.50;30.66;101742.44;5078314;27;45451;-74
2023/06/27 09:29:08;;;;;;;;;3.00;1.25;;;;;26.43;30.81;101766.06;5077900;28;45440;-75
2023/06/27 09:31:34;;;;;;;;;2.00;2.00;;;;;26.51;31.95;101783.63;5078090;27;45520;-74
2023/06/27 09:34:06;;;;;;;;;3.00;2.50;;;;;26.61;32.32;101779.56;5078792;27;45457;-73
2023/06/27 09:36:34;;;;;;;;;4.25;3.00;;;;;26.30;33.48;101770.28;5080008;27;45907;-72
2023/06/27 09:39:03;;;;;;;;;3.00;3.00;;;;;26.10;33.53;101756.91;5077718;27;45468;-74
2023/06/27 09:41:58;;;;;;;;;2.50;2.00;;;;;26.31;33.73;101777.38;5078475;28;45469;-73
2023/06/27 09:44:25;;;;;;;;;4.00;4.00;;;;;26.38;33.79;101751.97;5073183;28;45443;-74
2023/06/27 09:46:55;;;;;;;;;6.25;3.50;;;;;26.52;33.92;101743.25;5077816;27;45381;-76
2023/06/27 09:49:25;;;;;;;;;3.75;3.75;;;;;26.58;33.86;101756.41;5077277;28;46088;-74
2023/06/27 09:51:50;;;;;;;;;5.50;4.00;;;;;26.40;32.94;101720.53;5078059;28;45492;-73
2023/06/27 09:54:21;;;;;;;;;3.50;3.50;;;;;26.37;32.68;101701.03;5077890;28;45490;-73
2023/06/27 09:56:51;;;;;;;;;3.75;3.75;;;;;26.79;32.90;101756.28;5077802;28;45441;-74
2023/06/27 09:59:27;;;;;;;;;3.25;2.75;;;;;26.86;31.65;101744.28;5077809;28;46142;-75
2023/06/27 10:01:54;;;;;;;;;4.25;3.50;;;;;26.63;31.18;101738.25;5077235;27;45184;-75
2023/06/27 10:04:20;;;;;;;;;3.00;2.00;;;;;26.69;31.57;101737.06;5076458;27;45437;-73
2023/06/27 10:06:45;;;;;;;;;3.25;1.75;;;;;26.71;31.84;101742.38;5077789;27;45864;-74
2023/06/27 10:09:12;;;;;;;;;4.00;2.75;;;;;26.72;31.81;101734.25;5076427;28;47105;-75
2023/06/27 10:11:39;;;;;;;;;3.00;3.00;;;;;26.81;32.18;101735.56;5077652;28;45413;-75
2023/06/27 10:14:05;;;;;;;;;2.75;2.00;;;;;26.93;31.91;101744.84;5076841;27;45744;-74
2023/06/27 10:16:31;;;;;;;;;3.00;3.00;;;;;26.94;32.07;101747.47;5077617;28;45492;-74
2023/06/27 10:18:57;;;;;;;;;6.00;3.00;;;;;26.81;31.87;101717.66;5076959;27;46066;-74
2023/06/27 10:21:28;;;;;;;;;2.25;2.25;;;;;26.88;31.41;101730.78;5076670;28;45379;-75
2023/06/27 10:23:58;;;;;;;;;4.00;2.25;;;;;26.95;31.85;101732.19;5072869;27;45408;-74
2023/06/27 10:26:28;;;;;;;;;3.75;2.00;;;;;27.07;32.16;101740.53;5079522;27;45301;-75
2023/06/27 10:28:56;;;;;;;;;2.50;2.50;;;;;27.09;31.38;101729.66;5058326;28;45570;-73
2023/06/27 10:31:50;;;;;;;;;3.50;2.00;;;;;26.88;30.87;101696.69;5057201;28;45592;-76
2023/06/27 10:34:21;;;;;;;;;3.25;3.00;;;;;26.92;31.32;101721.59;5057171;28;45414;-75
2023/06/27 10:37:00;;;;;;;;;5.25;3.75;;;;;27.10;31.55;101743.97;5057157;28;45450;-75
2023/06/27 10:39:36;;;;;;;;;3.50;3.50;;;;;27.18;30.93;101728.34;5064553;28;46020;-76
2023/06/27 10:42:18;;;;;;;;;4.25;3.75;;;;;27.26;31.08;101742.25;5077186;27;45415;-75
2023/06/27 10:45:12;;;;;;;;;4.00;4.00;;;;;27.34;30.83;101737.38;5077815;27;45370;-75
2023/06/27 10:47:44;;;;;;;;;5.00;4.75;;;;;27.42;30.55;101740.50;5077789;28;45431;-73
2023/06/27 10:50:15;;;;;;;;;3.75;3.00;;;;;27.46;30.65;101741.22;5077374;27;45554;-73
2023/06/27 10:52:59;;;;;;;;;5.25;4.00;;;;;27.54;30.37;101739.00;5078172;27;45337;-74
2023/06/27 10:55:29;;;;;;;;;3.25;2.25;;;;;27.64;30.94;101742.06;5077186;27;45461;-70
2023/06/27 10:58:10;;;;;;;;;3.50;3.50;;;;;27.56;30.72;101712.88;5075928;28;45308;-73
2023/06/27 11:00:40;;;;;;;;;4.50;3.25;;;;;27.84;30.78;101736.50;5092578;27;46146;-72
2023/06/27 11:03:18;;;;;;;;;6.75;4.25;;;;;27.61;30.05;101720.69;5093286;27;45472;-73
2023/06/27 11:05:57;;;;;;;;;3.75;3.00;;;;;27.56;30.93;101747.00;5078215;28;45428;-72
2023/06/27 11:08:27;;;;;;;;;4.00;3.75;;;;;27.64;31.66;101742.91;5077983;28;45533;-72
2023/06/27 11:10:58;;;;;;;;;3.00;3.00;;;;;27.67;31.23;101725.75;5077074;27;45834;-73
2023/06/27 11:13:27;;;;;;;;;4.50;4.50;;;;;27.88;31.42;101735.38;5076430;27;45556;-73
2023/06/27 11:15:53;;;;;;;;;4.50;4.25;;;;;27.61;29.72;101675.81;5071863;28;45450;-72
2023/06/27 11:18:25;;;;;;;;;4.75;2.75;;;;;28.01;28.74;101714.03;5057701;28;45486;-74
2023/06/27 11:20:51;;;;;;;;;5.25;3.00;;;;;28.15;29.44;101723.16;5070648;28;46216;-72
2023/06/27 11:23:17;;;;;;;;;4.75;4.00;;;;;28.06;29.56;101695.78;5076552;27;45508;-72
2023/06/27 11:25:45;;;;;;;;;4.00;4.00;;;;;28.23;29.29;101719.06;5077591;27;45441;-72
2023/06/27 11:28:15;;;;;;;;;4.00;2.50;;;;;28.28;29.08;101702.63;5078500;27;45939;-71
2023/06/27 11:30:45;;;;;;;;;1.75;1.75;;;;;28.45;29.19;101717.81;5078372;28;46708;-72
2023/06/27 11:33:19;;;;;;;;;5.40;4.00;;;;;28.50;29.07;101713.09;5076710;27;45371;-72
2023/06/27 11:35:45;;;;;;;;;5.50;3.00;;;;;28.40;28.27;101680.38;5076966;27;45334;-71
2023/06/27 11:38:12;;;;;;;;;5.00;3.00;;;;;28.46;28.08;101687.28;5077461;27;45416;-72
2023/06/27 11:40:48;;;;;;;;;3.00;3.00;;;;;28.66;27.63;101713.91;5092361;27;45847;-73
2023/06/27 11:43:15;;;;;;;;;4.00;2.50;;;;;28.69;28.43;101707.50;5076706;27;45479;-71
2023/06/27 11:45:47;;;;;;;;;3.75;3.75;;;;;28.79;28.82;101705.97;5078787;27;45469;-73
2023/06/27 11:48:13;;;;;;;;;3.25;3.25;;;;;28.79;28.10;101691.66;5078074;28;45398;-72
2023/06/27 11:51:03;;;;;;;;;6.50;4.00;;;;;28.73;28.10;101676.69;5093089;27;47620;-73
2023/06/27 11:53:29;;;;;;;;;4.00;3.00;;;;;28.93;28.48;101703.34;5076381;28;45551;-73
2023/06/27 11:56:00;;;;;;;;;4.80;3.20;;;;;29.01;28.76;101696.59;5076634;28;45292;-71
2023/06/27 11:58:33;;;;;;;;;6.00;3.00;;;;;29.07;27.53;101696.25;5076703;27;45539;-72
2023/06/27 12:01:00;;;;;;;;;5.00;3.00;;;;;28.90;28.21;101691.84;5092559;27;46887;-72
2023/06/27 12:03:33;;;;;;;;;3.00;3.00;;;;;28.78;29.15;101649.44;5076038;27;45495;-73
2023/06/27 12:05:58;;;;;;;;;5.25;3.50;;;;;29.09;28.61;101679.03;5066057;27;45430;-72
2023/06/27 12:08:31;;;;;;;;;2.50;2.50;;;;;29.21;28.51;101684.63;5071115;28;45455;-72
2023/06/27 12:11:03;;;;;;;;;5.00;2.75;;;;;29.16;28.18;101679.50;5076435;28;45984;-70
2023/06/27 12:13:33;;;;;;;;;5.00;5.00;;;;;29.14;28.43;101682.31;5040988;28;45877;-73
2023/06/27 12:15:59;;;;;;;;;5.25;3.00;;;;;29.11;27.66;101687.88;5036027;28;45509;-72
2023/06/27 12:18:30;;;;;;;;;4.25;4.00;;;;;29.02;27.75;101663.25;5034776;28;45465;-71
2023/06/27 12:20:57;;;;;;;;;3.50;3.50;;;;;29.23;27.56;101675.47;5035586;28;45341;-72
2023/06/27 12:23:26;;;;;;;;;5.25;5.25;;;;;29.17;27.54;101657.84;5036110;28;45360;-72
2023/06/27 12:25:51;;;;;;;;;4.00;4.00;;;;;29.32;26.85;101677.59;5018561;28;45351;-71
2023/06/27 12:28:20;;;;;;;;;5.25;3.00;;;;;29.30;27.17;101660.63;5056725;28;45449;-75
2023/06/27 12:30:45;;;;;;;;;3.50;3.50;;;;;29.29;26.88;101641.88;5056605;28;46143;-72
2023/06/27 12:33:16;;;;;;;;;4.75;3.75;;;;;29.53;27.26;101661.03;5056169;28;45456;-72
2023/06/27 12:35:43;;;;;;;;;3.60;3.00;;;;;29.39;27.42;101656.50;5044232;28;45579;-75
2023/06/27 12:38:09;;;;;;;;;1.00;1.00;;;;;29.21;27.60;101633.34;5073193;28;45348;-73
2023/06/27 12:40:35;;;;;;;;;4.00;2.00;;;;;29.14;27.76;101617.56;5066294;28;45667;-72
2023/06/27 12:43:03;;;;;;;;;2.40;2.40;;;;;29.36;27.54;101656.69;5080295;28;45401;-72
2023/06/27 12:45:31;;;;;;;;;3.25;3.25;;;;;29.36;27.14;101654.00;5062915;28;45465;-72
2023/06/27 12:47:59;;;;;;;;;3.25;3.00;;;;;29.50;27.34;101650.44;5081390;28;45362;-72
2023/06/27 12:50:28;;;;;;;;;4.00;3.00;;;;;29.41;27.37;101641.09;5079733;28;46128;-71
2023/06/27 12:52:54;;;;;;;;;3.20;3.20;;;;;29.34;27.35;101637.03;5061002;28;45634;-71
2023/06/27 12:55:20;;;;;;;;;3.00;3.00;;;;;29.40;27.90;101628.56;5073163;28;45463;-72
2023/06/27 12:57:48;;;;;;;;;5.50;3.00;;;;;29.34;27.19;101635.19;5059331;28;45414;-71
2023/06/27 13:00:19;;;;;;;;;3.00;3.00;;;;;29.40;27.49;101655.56;5062521;28;45510;-73
2023/06/27 13:02:48;;;;;;;;;4.00;3.40;;;;;29.21;27.27;101614.47;5079486;28;45771;-74
2023/06/27 13:05:14;;;;;;;;;5.00;3.25;;;;;29.26;27.35;101626.75;5071093;28;45433;-75
2023/06/27 13:07:40;;;;;;;;;6.75;4.25;;;;;29.35;27.83;101617.19;5079608;28;45563;-75
2023/06/27 13:10:06;;;;;;;;;5.25;4.00;;;;;29.58;26.83;101635.47;5079656;28;45468;-73
2023/06/27 13:12:32;;;;;;;;;8.40;4.40;;;;;29.57;27.07;101614.84;5079302;27;45476;-77
2023/06/27 13:14:57;;;;;;;;;3.00;3.00;;;;;29.77;26.94;101632.47;5078864;27;45367;-75
2023/06/27 13:17:23;;;;;;;;;5.75;4.75;;;;;29.52;26.21;101597.19;5079592;28;45427;-72
2023/06/27 13:19:49;;;;;;;;;6.50;5.00;;;;;29.77;26.65;101621.69;5090810;27;46817;-72
2023/06/27 13:24:50;;;;;;;;;5.00;4.75;;;;;29.75;27.32;101615.50;5106459;22;45515;-74
2023/06/27 13:27:17;;;;;;;;;4.75;3.50;;;;;29.80;27.27;101615.22;5019554;28;45627;-72
2023/06/27 13:29:43;;;;;;;;;6.25;6.00;;;;;29.88;27.09;101612.91;5019330;28;46649;-71
2023/06/27 13:32:09;;;;;;;;;6.00;4.75;;;;;29.91;26.47;101596.47;5018865;28;45519;-72
2023/06/27 13:34:35;;;;;;;;;4.50;4.50;;;;;30.08;26.43;101621.50;5017551;28;45790;-71
2023/06/27 13:37:00;;;;;;;;;4.25;4.25;;;;;30.11;25.87;101615.91;5001832;28;45467;-75
2023/06/27 13:39:26;;;;;;;;;7.50;7.00;;;;;29.75;26.28;101606.56;5018754;28;46035;-71
2023/06/27 13:41:53;;;;;;;;;5.00;5.00;;;;;29.77;26.57;101599.22;5022855;28;45530;-71
2023/06/27 13:44:18;;;;;;;;;4.75;4.00;;;;;29.74;26.34;101584.09;5022116;28;45458;-73
2023/06/27 13:46:44;;;;;;;;;6.75;4.75;;;;;29.94;26.59;101608.91;5039253;28;45542;-75
2023/06/27 13:49:10;;;;;;;;;3.00;3.00;;;;;30.05;26.03;101608.22;5038572;28;45575;-74
2023/06/27 13:51:39;;;;;;;;;4.25;4.00;;;;;30.16;25.65;101614.63;5040963;28;45428;-75
2023/06/27 13:54:05;;;;;;;;;3.20;3.20;;;;;30.28;25.77;101610.28;5040166;28;45423;-75
2023/06/27 13:56:30;;;;;;;;;4.00;3.25;;;;;30.36;25.92;101602.50;5030767;28;45541;-75
2023/06/27 13:58:58;;;;;;;;;7.75;4.00;;;;;30.41;25.51;101608.47;5018326;28;46086;-75
2023/06/27 14:01:25;;;;;;;;;3.60;3.40;;;;;30.32;25.23;101582.06;5017767;28;45499;-72
2023/06/27 14:03:51;;;;;;;;;5.20;3.00;;;;;30.40;25.69;101586.97;5001580;28;45526;-76
2023/06/27 14:06:16;;;;;;;;;4.75;4.25;;;;;30.29;25.96;101578.72;5019405;28;45373;-76
2023/06/27 14:08:42;;;;;;;;;4.00;3.50;;;;;30.06;26.04;101548.66;5000275;28;45547;-73
2023/06/27 14:11:14;;;;;;;;;5.00;4.00;;;;;30.38;25.50;101588.91;5018925;28;45465;-73
2023/06/27 14:13:44;;;;;;;;;4.00;3.00;;;;;30.41;25.68;101559.81;5020639;28;45468;-75
2023/06/27 14:16:11;;;;;;;;;5.25;4.00;;;;;30.50;25.21;101565.56;5019583;28;45398;-72
2023/06/27 14:18:37;;;;;;;;;4.50;4.50;;;;;30.61;25.73;101568.38;5018629;28;46124;-73
2023/06/27 14:21:07;;;;;;;;;4.00;4.00;;;;;30.66;26.00;101574.34;5000845;28;45829;-74
2023/06/27 14:23:37;;;;;;;;;6.40;4.20;;;;;30.64;25.79;101562.78;5019146;28;45617;-72
2023/06/27 14:26:04;;;;;;;;;4.25;4.25;;;;;30.49;25.36;101564.69;5019407;28;45412;-72
2023/06/27 14:28:31;;;;;;;;;9.20;4.80;;;;;30.40;26.29;101541.88;5018726;28;46035;-72
2023/06/27 14:30:59;;;;;;;;;4.60;4.20;;;;;30.55;25.94;101563.41;5000219;28;45487;-73
2023/06/27 14:33:25;;;;;;;;;6.80;5.40;;;;;30.36;25.54;101532.25;5016154;28;45490;-73
2023/06/27 14:35:52;;;;;;;;;6.50;4.00;;;;;30.34;25.23;101546.84;4999349;28;45459;-74
2023/06/27 14:38:18;;;;;;;;;3.80;3.00;;;;;30.20;26.01;101559.41;4999900;28;47434;-72
2023/06/27 14:40:45;;;;;;;;;3.40;3.00;;;;;30.20;25.81;101563.94;5018743;28;45447;-76
2023/06/27 14:43:13;;;;;;;;;3.00;3.00;;;;;30.20;25.31;101563.94;5013434;28;45475;-74
2023/06/27 14:45:42;;;;;;;;;6.00;4.00;;;;;30.22;26.28;101562.88;5012911;28;46552;-72
2023/06/27 14:48:09;;;;;;;;;4.25;4.25;;;;;30.14;26.08;101540.06;5018851;28;46258;-71
2023/06/27 14:50:38;;;;;;;;;5.00;4.00;;;;;30.33;26.29;101547.81;5010209;28;45620;-72
2023/06/27 14:53:05;;;;;;;;;5.75;5.75;;;;;30.37;26.10;101533.09;5005295;28;45639;-73
2023/06/27 14:55:31;;;;;;;;;7.75;5.75;;;;;30.22;26.09;101510.69;5019354;28;45460;-75
2023/06/27 14:57:57;;;;;;;;;2.00;2.00;;;;;30.37;25.80;101535.81;5026199;28;45511;-72
2023/06/27 15:00:22;;;;;;;;;5.75;4.75;;;;;30.42;25.99;101548.06;5014652;28;45479;-71
2023/06/27 15:02:48;;;;;;;;;5.00;3.25;;;;;30.31;25.89;101512.78;5016047;28;45913;-72
2023/06/27 15:05:14;;;;;;;;;3.75;3.75;;;;;30.57;26.13;101534.44;5014303;28;45486;-74
2023/06/27 15:07:39;;;;;;;;;7.00;4.25;;;;;30.56;25.61;101530.00;5035223;28;46153;-74
2023/06/27 15:10:09;;;;;;;;;4.25;4.25;;;;;30.35;25.75;101513.41;5006429;28;45894;-73
2023/06/27 15:12:35;;;;;;;;;3.00;3.00;;;;;30.49;25.59;101536.78;5009199;28;45491;-72
2023/06/27 15:15:06;;;;;;;;;5.00;3.25;;;;;30.47;25.81;101522.50;5020117;28;45476;-78
2023/06/27 15:17:32;;;;;;;;;5.40;4.20;;;;;30.47;25.51;101519.81;4998030;28;45569;-74
2023/06/27 15:19:58;;;;;;;;;3.00;3.00;;;;;30.57;25.66;101535.28;5004205;28;45609;-73
2023/06/27 15:22:27;;;;;;;;;4.75;4.25;;;;;30.53;25.11;101516.69;5033945;28;45577;-73
2023/06/27 15:24:57;;;;;;;;;3.25;3.25;;;;;30.53;25.34;101514.84;5031032;28;45381;-72
2023/06/27 15:27:23;;;;;;;;;4.25;4.25;;;;;30.57;25.07;101512.81;5034525;28;46293;-74
2023/06/27 15:29:49;;;;;;;;;3.40;3.40;;;;;30.62;25.16;101511.50;5035508;28;45708;-73
2023/06/27 15:32:15;;;;;;;;;6.00;4.00;;;;;30.53;24.94;101505.88;5026332;28;45580;-78
2023/06/27 15:34:43;;;;;;;;;3.00;3.00;;;;;30.33;25.12;101494.63;5028616;28;45479;-74